sensor_id;sensor_type;location;lat;lon;timestamp;pressure;altitude;pressure_sealevel;temperature
71081;BMP180;58740;50.672;18.690;2023-05-08T00:01:40;100029.40;;;6.20
71081;BMP180;58740;50.672;18.690;2023-05-08T00:04:08;100027.60;;;6.20
71081;BMP180;58740;50.672;18.690;2023-05-08T00:06:36;100032.60;;;6.12
71081;BMP180;58740;50.672;18.690;2023-05-08T00:09:04;100028.00;;;6.16
71081;BMP180;58740;50.672;18.690;2023-05-08T00:11:32;100030.00;;;6.12
71081;BMP180;58740;50.672;18.690;2023-05-08T00:14:00;100023.80;;;6.10
71081;BMP180;58740;50.672;18.690;2023-05-08T00:16:28;100022.20;;;6.10
71081;BMP180;58740;50.672;18.690;2023-05-08T00:18:56;100025.60;;;6.10
71081;BMP180;58740;50.672;18.690;2023-05-08T00:21:24;100021.60;;;6.10
71081;BMP180;58740;50.672;18.690;2023-05-08T00:23:52;100019.20;;;6.00
71081;BMP180;58740;50.672;18.690;2023-05-08T00:26:20;100023.20;;;6.00
71081;BMP180;58740;50.672;18.690;2023-05-08T00:28:48;100030.00;;;5.96
71081;BMP180;58740;50.672;18.690;2023-05-08T00:31:16;100026.40;;;5.90
71081;BMP180;58740;50.672;18.690;2023-05-08T00:33:44;100024.00;;;5.82
71081;BMP180;58740;50.672;18.690;2023-05-08T00:36:11;100022.60;;;5.80
71081;BMP180;58740;50.672;18.690;2023-05-08T00:38:42;100025.60;;;5.80
71081;BMP180;58740;50.672;18.690;2023-05-08T00:41:10;100028.80;;;5.74
71081;BMP180;58740;50.672;18.690;2023-05-08T00:43:38;100035.20;;;5.70
71081;BMP180;58740;50.672;18.690;2023-05-08T00:46:06;100030.60;;;5.70
71081;BMP180;58740;50.672;18.690;2023-05-08T00:48:38;100023.40;;;5.60
71081;BMP180;58740;50.672;18.690;2023-05-08T00:51:08;100028.00;;;5.60
71081;BMP180;58740;50.672;18.690;2023-05-08T00:53:41;100028.00;;;5.60
71081;BMP180;58740;50.672;18.690;2023-05-08T00:56:13;100034.40;;;5.58
71081;BMP180;58740;50.672;18.690;2023-05-08T00:58:43;100036.20;;;5.50
71081;BMP180;58740;50.672;18.690;2023-05-08T01:01:13;100035.00;;;5.50
71081;BMP180;58740;50.672;18.690;2023-05-08T01:03:42;100042.40;;;5.50
71081;BMP180;58740;50.672;18.690;2023-05-08T01:06:11;100043.80;;;5.50
71081;BMP180;58740;50.672;18.690;2023-05-08T01:08:39;100046.00;;;5.50
71081;BMP180;58740;50.672;18.690;2023-05-08T01:11:27;100048.80;;;5.40
71081;BMP180;58740;50.672;18.690;2023-05-08T01:14:36;100050.40;;;5.40
71081;BMP180;58740;50.672;18.690;2023-05-08T01:17:28;100055.40;;;5.40
71081;BMP180;58740;50.672;18.690;2023-05-08T01:23:00;100054.20;;;5.30
71081;BMP180;58740;50.672;18.690;2023-05-08T01:34:22;100058.80;;;5.38
71081;BMP180;58740;50.672;18.690;2023-05-08T01:36:59;100059.80;;;5.30
71081;BMP180;58740;50.672;18.690;2023-05-08T01:39:56;100065.20;;;5.30
71081;BMP180;58740;50.672;18.690;2023-05-08T01:42:42;100073.60;;;5.30
71081;BMP180;58740;50.672;18.690;2023-05-08T01:45:22;100068.80;;;5.30
71081;BMP180;58740;50.672;18.690;2023-05-08T01:48:18;100067.20;;;5.30
71081;BMP180;58740;50.672;18.690;2023-05-08T01:50:59;100069.40;;;5.28
71081;BMP180;58740;50.672;18.690;2023-05-08T01:53:35;100069.00;;;5.20
71081;BMP180;58740;50.672;18.690;2023-05-08T01:56:09;100063.60;;;5.20
71081;BMP180;58740;50.672;18.690;2023-05-08T01:58:41;100071.40;;;5.20
71081;BMP180;58740;50.672;18.690;2023-05-08T02:01:12;100069.60;;;5.20
71081;BMP180;58740;50.672;18.690;2023-05-08T02:03:43;100061.20;;;5.20
71081;BMP180;58740;50.672;18.690;2023-05-08T02:06:13;100060.80;;;5.20
71081;BMP180;58740;50.672;18.690;2023-05-08T02:08:43;100064.40;;;5.20
71081;BMP180;58740;50.672;18.690;2023-05-08T02:11:15;100068.00;;;5.20
71081;BMP180;58740;50.672;18.690;2023-05-08T02:13:46;100062.40;;;5.20
71081;BMP180;58740;50.672;18.690;2023-05-08T02:16:15;100061.60;;;5.20
71081;BMP180;58740;50.672;18.690;2023-05-08T02:18:53;100063.40;;;5.10
71081;BMP180;58740;50.672;18.690;2023-05-08T02:21:22;100064.60;;;5.10
71081;BMP180;58740;50.672;18.690;2023-05-08T02:23:53;100065.80;;;5.10
71081;BMP180;58740;50.672;18.690;2023-05-08T02:26:24;100064.20;;;5.20
71081;BMP180;58740;50.672;18.690;2023-05-08T02:28:54;100070.60;;;5.20
71081;BMP180;58740;50.672;18.690;2023-05-08T02:31:23;100073.00;;;5.20
71081;BMP180;58740;50.672;18.690;2023-05-08T02:33:52;100076.80;;;5.20
71081;BMP180;58740;50.672;18.690;2023-05-08T02:36:21;100075.20;;;5.20
71081;BMP180;58740;50.672;18.690;2023-05-08T02:38:52;100073.20;;;5.20
71081;BMP180;58740;50.672;18.690;2023-05-08T02:41:26;100069.20;;;5.20
71081;BMP180;58740;50.672;18.690;2023-05-08T02:43:54;100071.00;;;5.20
71081;BMP180;58740;50.672;18.690;2023-05-08T02:46:44;100072.80;;;5.10
71081;BMP180;58740;50.672;18.690;2023-05-08T02:49:29;100078.40;;;5.10
71081;BMP180;58740;50.672;18.690;2023-05-08T02:52:13;100075.80;;;5.10
71081;BMP180;58740;50.672;18.690;2023-05-08T02:55:04;100074.80;;;5.10
71081;BMP180;58740;50.672;18.690;2023-05-08T03:00:17;100071.60;;;5.10
71081;BMP180;58740;50.672;18.690;2023-05-08T03:02:53;100070.80;;;5.10
71081;BMP180;58740;50.672;18.690;2023-05-08T03:05:29;100068.40;;;5.10
71081;BMP180;58740;50.672;18.690;2023-05-08T03:08:10;100071.60;;;5.00
71081;BMP180;58740;50.672;18.690;2023-05-08T03:10:44;100074.20;;;4.98
71081;BMP180;58740;50.672;18.690;2023-05-08T03:13:15;100073.20;;;4.90
71081;BMP180;58740;50.672;18.690;2023-05-08T03:15:54;100064.20;;;4.90
71081;BMP180;58740;50.672;18.690;2023-05-08T03:18:31;100070.80;;;4.90
71081;BMP180;58740;50.672;18.690;2023-05-08T03:21:03;100067.00;;;4.90
71081;BMP180;58740;50.672;18.690;2023-05-08T03:23:34;100073.40;;;4.82
71081;BMP180;58740;50.672;18.690;2023-05-08T03:26:04;100072.00;;;4.80
71081;BMP180;58740;50.672;18.690;2023-05-08T03:28:34;100076.20;;;4.80
71081;BMP180;58740;50.672;18.690;2023-05-08T03:31:05;100078.20;;;4.80
71081;BMP180;58740;50.672;18.690;2023-05-08T03:33:36;100080.60;;;4.80
71081;BMP180;58740;50.672;18.690;2023-05-08T03:36:06;100081.80;;;4.88
71081;BMP180;58740;50.672;18.690;2023-05-08T03:38:34;100079.00;;;4.80
71081;BMP180;58740;50.672;18.690;2023-05-08T03:41:03;100083.20;;;4.88
71081;BMP180;58740;50.672;18.690;2023-05-08T03:43:32;100085.60;;;4.80
71081;BMP180;58740;50.672;18.690;2023-05-08T03:46:00;100078.80;;;4.80
71081;BMP180;58740;50.672;18.690;2023-05-08T03:48:32;100082.20;;;4.82
71081;BMP180;58740;50.672;18.690;2023-05-08T03:51:03;100083.40;;;4.86
71081;BMP180;58740;50.672;18.690;2023-05-08T03:53:32;100082.20;;;4.84
71081;BMP180;58740;50.672;18.690;2023-05-08T03:56:01;100082.80;;;4.86
71081;BMP180;58740;50.672;18.690;2023-05-08T03:58:40;100090.40;;;4.82
71081;BMP180;58740;50.672;18.690;2023-05-08T04:01:19;100090.00;;;4.88
71081;BMP180;58740;50.672;18.690;2023-05-08T04:04:04;100092.80;;;4.90
71081;BMP180;58740;50.672;18.690;2023-05-08T04:10:13;100100.60;;;4.90
71081;BMP180;58740;50.672;18.690;2023-05-08T04:13:12;100105.40;;;4.90
71081;BMP180;58740;50.672;18.690;2023-05-08T04:15:54;100108.60;;;4.94
71081;BMP180;58740;50.672;18.690;2023-05-08T04:18:29;100105.00;;;4.90
71081;BMP180;58740;50.672;18.690;2023-05-08T04:21:00;100111.20;;;4.98
71081;BMP180;58740;50.672;18.690;2023-05-08T04:23:30;100113.80;;;5.00
71081;BMP180;58740;50.672;18.690;2023-05-08T04:26:00;100113.20;;;5.00
71081;BMP180;58740;50.672;18.690;2023-05-08T04:28:33;100119.40;;;5.00
71081;BMP180;58740;50.672;18.690;2023-05-08T04:31:03;100123.40;;;5.00
71081;BMP180;58740;50.672;18.690;2023-05-08T04:33:34;100122.20;;;5.10
71081;BMP180;58740;50.672;18.690;2023-05-08T04:36:02;100127.40;;;5.10
71081;BMP180;58740;50.672;18.690;2023-05-08T04:38:30;100133.20;;;5.10
71081;BMP180;58740;50.672;18.690;2023-05-08T04:41:02;100136.20;;;5.10
71081;BMP180;58740;50.672;18.690;2023-05-08T04:43:32;100143.40;;;5.20
71081;BMP180;58740;50.672;18.690;2023-05-08T04:46:04;100145.60;;;5.20
71081;BMP180;58740;50.672;18.690;2023-05-08T04:48:34;100149.20;;;5.30
71081;BMP180;58740;50.672;18.690;2023-05-08T04:51:10;100150.60;;;5.30
71081;BMP180;58740;50.672;18.690;2023-05-08T04:53:41;100152.60;;;5.40
71081;BMP180;58740;50.672;18.690;2023-05-08T04:56:10;100151.60;;;5.40
71081;BMP180;58740;50.672;18.690;2023-05-08T04:58:39;100157.80;;;5.42
71081;BMP180;58740;50.672;18.690;2023-05-08T05:01:08;100158.20;;;5.50
71081;BMP180;58740;50.672;18.690;2023-05-08T05:03:37;100154.40;;;5.56
71081;BMP180;58740;50.672;18.690;2023-05-08T05:06:04;100150.80;;;5.68
71081;BMP180;58740;50.672;18.690;2023-05-08T05:08:32;100156.00;;;5.70
71081;BMP180;58740;50.672;18.690;2023-05-08T05:11:00;100153.00;;;5.80
71081;BMP180;58740;50.672;18.690;2023-05-08T05:13:27;100157.00;;;5.80
71081;BMP180;58740;50.672;18.690;2023-05-08T05:15:59;100159.40;;;5.90
71081;BMP180;58740;50.672;18.690;2023-05-08T05:18:27;100165.80;;;5.90
71081;BMP180;58740;50.672;18.690;2023-05-08T05:20:57;100164.00;;;6.00
71081;BMP180;58740;50.672;18.690;2023-05-08T05:23:26;100167.80;;;6.00
71081;BMP180;58740;50.672;18.690;2023-05-08T05:25:54;100169.40;;;6.00
71081;BMP180;58740;50.672;18.690;2023-05-08T05:28:22;100172.80;;;6.00
71081;BMP180;58740;50.672;18.690;2023-05-08T05:31:17;100172.80;;;5.92
71081;BMP180;58740;50.672;18.690;2023-05-08T05:33:45;100176.20;;;5.96
71081;BMP180;58740;50.672;18.690;2023-05-08T05:36:13;100179.60;;;5.98
71081;BMP180;58740;50.672;18.690;2023-05-08T05:38:42;100184.60;;;5.90
71081;BMP180;58740;50.672;18.690;2023-05-08T05:41:09;100187.20;;;5.90
71081;BMP180;58740;50.672;18.690;2023-05-08T05:43:37;100188.60;;;5.90
71081;BMP180;58740;50.672;18.690;2023-05-08T05:46:06;100188.20;;;5.90
71081;BMP180;58740;50.672;18.690;2023-05-08T05:48:35;100192.40;;;5.90
71081;BMP180;58740;50.672;18.690;2023-05-08T05:51:03;100195.80;;;5.94
71081;BMP180;58740;50.672;18.690;2023-05-08T05:53:46;100193.60;;;6.00
71081;BMP180;58740;50.672;18.690;2023-05-08T05:56:14;100195.40;;;5.96
71081;BMP180;58740;50.672;18.690;2023-05-08T05:58:52;100196.20;;;5.94
71081;BMP180;58740;50.672;18.690;2023-05-08T06:01:27;100199.80;;;6.00
71081;BMP180;58740;50.672;18.690;2023-05-08T06:04:15;100196.20;;;6.00
71081;BMP180;58740;50.672;18.690;2023-05-08T06:06:44;100205.60;;;6.10
71081;BMP180;58740;50.672;18.690;2023-05-08T06:09:20;100212.20;;;6.10
71081;BMP180;58740;50.672;18.690;2023-05-08T06:11:48;100206.60;;;6.10
71081;BMP180;58740;50.672;18.690;2023-05-08T06:14:16;100216.00;;;6.12
71081;BMP180;58740;50.672;18.690;2023-05-08T06:16:46;100221.60;;;6.10
71081;BMP180;58740;50.672;18.690;2023-05-08T06:19:14;100221.80;;;6.18
71081;BMP180;58740;50.672;18.690;2023-05-08T06:21:43;100209.20;;;6.22
71081;BMP180;58740;50.672;18.690;2023-05-08T06:24:15;100218.00;;;6.36
71081;BMP180;58740;50.672;18.690;2023-05-08T06:27:04;100217.00;;;6.50
71081;BMP180;58740;50.672;18.690;2023-05-08T06:29:32;100218.40;;;6.50
71081;BMP180;58740;50.672;18.690;2023-05-08T06:32:00;100224.20;;;6.50
71081;BMP180;58740;50.672;18.690;2023-05-08T06:34:28;100227.20;;;6.60
71081;BMP180;58740;50.672;18.690;2023-05-08T06:36:55;100226.20;;;6.60
71081;BMP180;58740;50.672;18.690;2023-05-08T06:39:24;100226.00;;;6.62
71081;BMP180;58740;50.672;18.690;2023-05-08T06:42:08;100235.40;;;6.60
71081;BMP180;58740;50.672;18.690;2023-05-08T06:44:36;100227.40;;;6.60
71081;BMP180;58740;50.672;18.690;2023-05-08T06:47:04;100230.60;;;6.60
71081;BMP180;58740;50.672;18.690;2023-05-08T06:49:36;100238.40;;;6.58
71081;BMP180;58740;50.672;18.690;2023-05-08T06:52:03;100239.00;;;6.50
71081;BMP180;58740;50.672;18.690;2023-05-08T06:54:31;100239.00;;;6.60
71081;BMP180;58740;50.672;18.690;2023-05-08T06:57:02;100239.00;;;6.62
71081;BMP180;58740;50.672;18.690;2023-05-08T06:59:30;100240.80;;;6.70
71081;BMP180;58740;50.672;18.690;2023-05-08T07:01:59;100245.80;;;6.70
71081;BMP180;58740;50.672;18.690;2023-05-08T07:04:35;100245.00;;;6.74
71081;BMP180;58740;50.672;18.690;2023-05-08T07:07:19;100245.20;;;6.76
71081;BMP180;58740;50.672;18.690;2023-05-08T07:09:58;100243.80;;;6.72
71081;BMP180;58740;50.672;18.690;2023-05-08T07:12:46;100244.60;;;6.80
71081;BMP180;58740;50.672;18.690;2023-05-08T07:15:14;100249.00;;;6.80
71081;BMP180;58740;50.672;18.690;2023-05-08T07:17:54;100251.00;;;6.80
71081;BMP180;58740;50.672;18.690;2023-05-08T07:21:04;100244.80;;;6.90
71081;BMP180;58740;50.672;18.690;2023-05-08T07:23:33;100246.60;;;6.90
71081;BMP180;58740;50.672;18.690;2023-05-08T07:26:02;100250.40;;;7.00
71081;BMP180;58740;50.672;18.690;2023-05-08T07:28:31;100257.60;;;7.10
71081;BMP180;58740;50.672;18.690;2023-05-08T07:31:04;100255.80;;;7.10
71081;BMP180;58740;50.672;18.690;2023-05-08T07:33:58;100258.80;;;7.20
71081;BMP180;58740;50.672;18.690;2023-05-08T07:36:41;100253.60;;;7.30
71081;BMP180;58740;50.672;18.690;2023-05-08T07:39:47;100252.40;;;7.30
71081;BMP180;58740;50.672;18.690;2023-05-08T07:42:16;100245.00;;;7.40
71081;BMP180;58740;50.672;18.690;2023-05-08T07:44:44;100238.80;;;7.46
71081;BMP180;58740;50.672;18.690;2023-05-08T07:47:21;100249.00;;;7.60
71081;BMP180;58740;50.672;18.690;2023-05-08T07:49:50;100244.20;;;7.80
71081;BMP180;58740;50.672;18.690;2023-05-08T07:52:18;100242.60;;;7.90
71081;BMP180;58740;50.672;18.690;2023-05-08T07:54:45;100244.20;;;7.92
71081;BMP180;58740;50.672;18.690;2023-05-08T07:57:13;100241.60;;;7.90
71081;BMP180;58740;50.672;18.690;2023-05-08T07:59:41;100241.00;;;7.90
71081;BMP180;58740;50.672;18.690;2023-05-08T08:02:09;100244.60;;;7.92
71081;BMP180;58740;50.672;18.690;2023-05-08T08:04:36;100240.20;;;8.00
71081;BMP180;58740;50.672;18.690;2023-05-08T08:07:04;100239.60;;;8.00
71081;BMP180;58740;50.672;18.690;2023-05-08T08:09:32;100236.20;;;8.00
71081;BMP180;58740;50.672;18.690;2023-05-08T08:12:00;100242.80;;;8.00
71081;BMP180;58740;50.672;18.690;2023-05-08T08:14:30;100248.80;;;8.00
71081;BMP180;58740;50.672;18.690;2023-05-08T08:17:02;100246.00;;;8.00
71081;BMP180;58740;50.672;18.690;2023-05-08T08:19:29;100243.60;;;8.12
71081;BMP180;58740;50.672;18.690;2023-05-08T08:21:58;100239.40;;;8.26
71081;BMP180;58740;50.672;18.690;2023-05-08T08:24:49;100247.00;;;8.34
71081;BMP180;58740;50.672;18.690;2023-05-08T08:27:25;100240.00;;;8.50
71081;BMP180;58740;50.672;18.690;2023-05-08T08:29:52;100240.40;;;8.64
71081;BMP180;58740;50.672;18.690;2023-05-08T08:32:40;100238.20;;;8.70
71081;BMP180;58740;50.672;18.690;2023-05-08T08:35:11;100236.20;;;8.70
71081;BMP180;58740;50.672;18.690;2023-05-08T08:37:40;100244.40;;;8.70
71081;BMP180;58740;50.672;18.690;2023-05-08T08:40:08;100232.80;;;8.70
71081;BMP180;58740;50.672;18.690;2023-05-08T08:42:36;100235.60;;;8.70
71081;BMP180;58740;50.672;18.690;2023-05-08T08:45:05;100235.00;;;8.70
71081;BMP180;58740;50.672;18.690;2023-05-08T08:47:35;100232.60;;;8.70
71081;BMP180;58740;50.672;18.690;2023-05-08T08:50:09;100235.60;;;8.70
71081;BMP180;58740;50.672;18.690;2023-05-08T08:52:55;100236.80;;;8.70
71081;BMP180;58740;50.672;18.690;2023-05-08T08:55:28;100240.60;;;8.80
71081;BMP180;58740;50.672;18.690;2023-05-08T08:58:30;100240.60;;;8.88
71081;BMP180;58740;50.672;18.690;2023-05-08T09:01:00;100225.00;;;9.06
71081;BMP180;58740;50.672;18.690;2023-05-08T09:03:30;100231.00;;;9.30
71081;BMP180;58740;50.672;18.690;2023-05-08T09:05:59;100229.20;;;9.54
71081;BMP180;58740;50.672;18.690;2023-05-08T09:08:30;100229.40;;;9.70
71081;BMP180;58740;50.672;18.690;2023-05-08T09:11:01;100224.00;;;9.80
71081;BMP180;58740;50.672;18.690;2023-05-08T09:13:31;100223.00;;;10.00
71081;BMP180;58740;50.672;18.690;2023-05-08T09:15:59;100224.00;;;10.20
71081;BMP180;58740;50.672;18.690;2023-05-08T09:18:27;100215.80;;;10.40
71081;BMP180;58740;50.672;18.690;2023-05-08T09:20:56;100219.80;;;10.50
71081;BMP180;58740;50.672;18.690;2023-05-08T09:23:24;100212.80;;;10.58
71081;BMP180;58740;50.672;18.690;2023-05-08T09:25:52;100212.60;;;10.70
71081;BMP180;58740;50.672;18.690;2023-05-08T09:28:24;100207.40;;;10.60
71081;BMP180;58740;50.672;18.690;2023-05-08T09:30:55;100209.80;;;10.70
71081;BMP180;58740;50.672;18.690;2023-05-08T09:33:26;100209.20;;;10.80
71081;BMP180;58740;50.672;18.690;2023-05-08T09:35:56;100206.40;;;10.88
71081;BMP180;58740;50.672;18.690;2023-05-08T09:38:38;100211.00;;;10.90
71081;BMP180;58740;50.672;18.690;2023-05-08T09:41:15;100203.40;;;10.90
71081;BMP180;58740;50.672;18.690;2023-05-08T09:43:44;100208.80;;;10.78
71081;BMP180;58740;50.672;18.690;2023-05-08T09:46:26;100210.80;;;10.60
71081;BMP180;58740;50.672;18.690;2023-05-08T09:48:59;100209.00;;;10.56
71081;BMP180;58740;50.672;18.690;2023-05-08T09:51:30;100210.20;;;10.50
71081;BMP180;58740;50.672;18.690;2023-05-08T09:53:59;100210.20;;;10.40
71081;BMP180;58740;50.672;18.690;2023-05-08T09:56:36;100206.40;;;10.30
71081;BMP180;58740;50.672;18.690;2023-05-08T10:01:54;100213.40;;;10.30
71081;BMP180;58740;50.672;18.690;2023-05-08T10:04:41;100215.80;;;10.30
71081;BMP180;58740;50.672;18.690;2023-05-08T10:07:33;100211.60;;;10.42
71081;BMP180;58740;50.672;18.690;2023-05-08T10:10:28;100205.60;;;10.50
71081;BMP180;58740;50.672;18.690;2023-05-08T10:12:57;100191.40;;;10.48
71081;BMP180;58740;50.672;18.690;2023-05-08T10:15:28;100201.20;;;10.50
71081;BMP180;58740;50.672;18.690;2023-05-08T10:18:06;100203.20;;;10.50
71081;BMP180;58740;50.672;18.690;2023-05-08T10:20:42;100198.60;;;10.50
71081;BMP180;58740;50.672;18.690;2023-05-08T10:23:16;100189.20;;;10.50
71081;BMP180;58740;50.672;18.690;2023-05-08T10:25:47;100188.20;;;10.50
71081;BMP180;58740;50.672;18.690;2023-05-08T10:28:43;100194.40;;;10.54
71081;BMP180;58740;50.672;18.690;2023-05-08T10:31:16;100191.40;;;10.60
71081;BMP180;58740;50.672;18.690;2023-05-08T10:33:44;100181.60;;;10.60
71081;BMP180;58740;50.672;18.690;2023-05-08T10:36:16;100190.40;;;10.68
71081;BMP180;58740;50.672;18.690;2023-05-08T10:38:45;100181.60;;;10.70
71081;BMP180;58740;50.672;18.690;2023-05-08T10:41:18;100185.80;;;10.70
71081;BMP180;58740;50.672;18.690;2023-05-08T10:43:48;100181.40;;;10.76
71081;BMP180;58740;50.672;18.690;2023-05-08T10:46:27;100171.60;;;10.80
71081;BMP180;58740;50.672;18.690;2023-05-08T10:49:22;100175.40;;;10.90
71081;BMP180;58740;50.672;18.690;2023-05-08T10:52:28;100175.20;;;10.96
71081;BMP180;58740;50.672;18.690;2023-05-08T10:58:12;100163.40;;;11.22
71081;BMP180;58740;50.672;18.690;2023-05-08T11:03:31;100157.60;;;11.58
71081;BMP180;58740;50.672;18.690;2023-05-08T11:06:02;100152.80;;;11.66
71081;BMP180;58740;50.672;18.690;2023-05-08T11:08:30;100143.00;;;11.70
71081;BMP180;58740;50.672;18.690;2023-05-08T11:13:34;100147.00;;;11.80
71081;BMP180;58740;50.672;18.690;2023-05-08T11:16:11;100148.60;;;11.80
71081;BMP180;58740;50.672;18.690;2023-05-08T11:19:18;100139.20;;;11.80
71081;BMP180;58740;50.672;18.690;2023-05-08T11:22:13;100145.00;;;11.80
71081;BMP180;58740;50.672;18.690;2023-05-08T11:24:56;100144.40;;;11.80
71081;BMP180;58740;50.672;18.690;2023-05-08T11:27:32;100138.80;;;11.80
71081;BMP180;58740;50.672;18.690;2023-05-08T11:33:15;100129.80;;;12.00
71081;BMP180;58740;50.672;18.690;2023-05-08T11:38:43;100127.60;;;12.10
71081;BMP180;58740;50.672;18.690;2023-05-08T11:41:30;100131.80;;;12.10
71081;BMP180;58740;50.672;18.690;2023-05-08T11:44:12;100135.40;;;12.10
71081;BMP180;58740;50.672;18.690;2023-05-08T11:46:51;100127.60;;;12.10
71081;BMP180;58740;50.672;18.690;2023-05-08T11:50:01;100133.20;;;12.10
71081;BMP180;58740;50.672;18.690;2023-05-08T11:52:39;100124.80;;;12.10
71081;BMP180;58740;50.672;18.690;2023-05-08T11:55:10;100128.60;;;12.20
71081;BMP180;58740;50.672;18.690;2023-05-08T11:57:38;100124.20;;;12.30
71081;BMP180;58740;50.672;18.690;2023-05-08T12:00:09;100125.80;;;12.40
71081;BMP180;58740;50.672;18.690;2023-05-08T12:02:42;100125.60;;;12.40
71081;BMP180;58740;50.672;18.690;2023-05-08T12:05:12;100129.00;;;12.48
71081;BMP180;58740;50.672;18.690;2023-05-08T12:07:45;100127.80;;;12.50
71081;BMP180;58740;50.672;18.690;2023-05-08T12:10:54;100133.60;;;12.58
71081;BMP180;58740;50.672;18.690;2023-05-08T12:13:28;100128.60;;;12.54
71081;BMP180;58740;50.672;18.690;2023-05-08T12:15:59;100123.00;;;12.60
71081;BMP180;58740;50.672;18.690;2023-05-08T12:18:27;100126.20;;;12.66
71081;BMP180;58740;50.672;18.690;2023-05-08T12:21:05;100132.40;;;12.60
71081;BMP180;58740;50.672;18.690;2023-05-08T12:23:33;100130.00;;;12.60
71081;BMP180;58740;50.672;18.690;2023-05-08T12:26:01;100128.00;;;12.60
71081;BMP180;58740;50.672;18.690;2023-05-08T12:28:29;100131.00;;;12.58
71081;BMP180;58740;50.672;18.690;2023-05-08T12:31:00;100134.00;;;12.54
71081;BMP180;58740;50.672;18.690;2023-05-08T12:33:28;100131.20;;;12.60
71081;BMP180;58740;50.672;18.690;2023-05-08T12:35:57;100127.60;;;12.60
71081;BMP180;58740;50.672;18.690;2023-05-08T12:38:26;100127.00;;;12.70
71081;BMP180;58740;50.672;18.690;2023-05-08T12:41:14;100123.00;;;12.80
71081;BMP180;58740;50.672;18.690;2023-05-08T12:43:50;100119.20;;;12.80
71081;BMP180;58740;50.672;18.690;2023-05-08T12:46:18;100128.80;;;12.90
71081;BMP180;58740;50.672;18.690;2023-05-08T12:48:46;100116.60;;;12.90
71081;BMP180;58740;50.672;18.690;2023-05-08T12:51:14;100121.60;;;12.98
71081;BMP180;58740;50.672;18.690;2023-05-08T12:53:45;100132.20;;;13.00
71081;BMP180;58740;50.672;18.690;2023-05-08T12:56:12;100123.20;;;12.90
71081;BMP180;58740;50.672;18.690;2023-05-08T12:58:42;100117.80;;;12.90
71081;BMP180;58740;50.672;18.690;2023-05-08T13:01:11;100125.80;;;12.90
71081;BMP180;58740;50.672;18.690;2023-05-08T13:03:40;100118.00;;;12.96
71081;BMP180;58740;50.672;18.690;2023-05-08T13:06:22;100127.20;;;13.00
71081;BMP180;58740;50.672;18.690;2023-05-08T13:08:54;100122.40;;;13.00
71081;BMP180;58740;50.672;18.690;2023-05-08T13:11:30;100122.00;;;13.00
71081;BMP180;58740;50.672;18.690;2023-05-08T13:13:58;100121.60;;;12.90
71081;BMP180;58740;50.672;18.690;2023-05-08T13:16:26;100125.20;;;12.90
71081;BMP180;58740;50.672;18.690;2023-05-08T13:18:54;100125.40;;;12.90
71081;BMP180;58740;50.672;18.690;2023-05-08T13:21:21;100118.40;;;12.80
71081;BMP180;58740;50.672;18.690;2023-05-08T13:23:51;100124.40;;;12.70
71081;BMP180;58740;50.672;18.690;2023-05-08T13:26:21;100130.00;;;12.70
71081;BMP180;58740;50.672;18.690;2023-05-08T13:28:50;100125.00;;;12.70
71081;BMP180;58740;50.672;18.690;2023-05-08T13:31:21;100124.80;;;12.74
71081;BMP180;58740;50.672;18.690;2023-05-08T13:33:49;100121.00;;;12.70
71081;BMP180;58740;50.672;18.690;2023-05-08T13:36:17;100115.00;;;12.60
71081;BMP180;58740;50.672;18.690;2023-05-08T13:38:44;100116.00;;;12.60
71081;BMP180;58740;50.672;18.690;2023-05-08T13:41:12;100121.60;;;12.68
71081;BMP180;58740;50.672;18.690;2023-05-08T13:43:40;100111.00;;;12.60
71081;BMP180;58740;50.672;18.690;2023-05-08T13:46:08;100113.20;;;12.60
71081;BMP180;58740;50.672;18.690;2023-05-08T13:48:37;100112.20;;;12.60
71081;BMP180;58740;50.672;18.690;2023-05-08T13:51:05;100106.40;;;12.70
71081;BMP180;58740;50.672;18.690;2023-05-08T13:53:36;100110.80;;;12.70
71081;BMP180;58740;50.672;18.690;2023-05-08T13:56:09;100109.00;;;12.60
71081;BMP180;58740;50.672;18.690;2023-05-08T13:58:37;100110.40;;;12.58
71081;BMP180;58740;50.672;18.690;2023-05-08T14:01:05;100116.00;;;12.52
71081;BMP180;58740;50.672;18.690;2023-05-08T14:03:53;100107.80;;;12.52
71081;BMP180;58740;50.672;18.690;2023-05-08T14:06:22;100103.40;;;12.58
71081;BMP180;58740;50.672;18.690;2023-05-08T14:08:50;100107.80;;;12.60
71081;BMP180;58740;50.672;18.690;2023-05-08T14:11:21;100108.60;;;12.60
71081;BMP180;58740;50.672;18.690;2023-05-08T14:13:50;100106.80;;;12.60
71081;BMP180;58740;50.672;18.690;2023-05-08T14:16:17;100106.40;;;12.60
71081;BMP180;58740;50.672;18.690;2023-05-08T14:18:45;100105.00;;;12.58
71081;BMP180;58740;50.672;18.690;2023-05-08T14:21:13;100104.60;;;12.56
71081;BMP180;58740;50.672;18.690;2023-05-08T14:23:41;100120.80;;;12.60
71081;BMP180;58740;50.672;18.690;2023-05-08T14:26:10;100114.80;;;12.60
71081;BMP180;58740;50.672;18.690;2023-05-08T14:28:58;100108.40;;;12.58
71081;BMP180;58740;50.672;18.690;2023-05-08T14:31:26;100099.80;;;12.58
71081;BMP180;58740;50.672;18.690;2023-05-08T14:33:54;100104.20;;;12.60
71081;BMP180;58740;50.672;18.690;2023-05-08T14:36:22;100101.80;;;12.60
71081;BMP180;58740;50.672;18.690;2023-05-08T14:38:49;100096.40;;;12.60
71081;BMP180;58740;50.672;18.690;2023-05-08T14:41:17;100103.80;;;12.64
71081;BMP180;58740;50.672;18.690;2023-05-08T14:43:45;100100.40;;;12.62
71081;BMP180;58740;50.672;18.690;2023-05-08T14:46:13;100091.40;;;12.54
71081;BMP180;58740;50.672;18.690;2023-05-08T14:48:41;100098.80;;;12.50
71081;BMP180;58740;50.672;18.690;2023-05-08T14:51:09;100103.80;;;12.40
71081;BMP180;58740;50.672;18.690;2023-05-08T14:53:39;100095.40;;;12.40
71081;BMP180;58740;50.672;18.690;2023-05-08T14:56:08;100106.60;;;12.40
71081;BMP180;58740;50.672;18.690;2023-05-08T14:58:36;100098.00;;;12.44
71081;BMP180;58740;50.672;18.690;2023-05-08T15:01:05;100103.40;;;12.50